Sunday, April 22, 2018, 1:06 AM GMT
Back to Local

CWRK, Bancroft Automatic Weather Reporting System

Location: , , Canada Lat: 45.067
Local Time: 1:06 AM GMT ( 1:06 GMT) Lon: -77.867
Time Zone: GMT Elev: 1085 ft

Show me the last for .
Show Decoded

2018-04-22 00:00 METAR CWRK 220000Z AUTO 32002KT 06/M08 RMK AO1 SOG 07 1000 SLP281 T00551084 =
2018-04-21 23:00 METAR CWRK 212300Z AUTO 34004KT 10/M10 RMK AO1 SOG 07 5000 SLP281 T00951102 =
2018-04-21 22:00 METAR CWRK 212200Z AUTO 34007KT 11/M11 RMK AO1 SOG 07 5000 SLP277 T01131114 =
2018-04-21 21:00 METAR CWRK 212100Z AUTO 33009G17KT 11/M11 RMK AO1 SOG 08 7010 PK WND 30018/2015
                 SLP275 T01131114 =
2018-04-21 20:00 METAR CWRK 212000Z AUTO 32008G16KT 11/M12 RMK AO1 SOG 08 6010 PK WND 03018/1932
                 SLP280 T01101116 =
2018-04-21 19:00 METAR CWRK 211900Z AUTO 01009G16KT 10/M10 RMK AO1 SOG 09 6010 PK WND 31019/1812
                 SLP284 T01031104 =
2018-04-21 18:00 METAR CWRK 211800Z AUTO 01009G15KT 10/M10 RMK AO1 SOG 09 6010 SLP289 T00961098 =
2018-04-21 17:00 METAR CWRK 211700Z AUTO 32007KT 09/M11 RMK AO1 SOG 10 8010 SLP294 T00881112 =
2018-04-21 16:00 METAR CWRK 211600Z AUTO 31008KT 08/M12 RMK AO1 SOG 11 8000 SLP302 T00801121 =
2018-04-21 15:00 METAR CWRK 211500Z AUTO 30004KT 07/M10 RMK AO1 SOG 10 0000 SLP308 T00741099 =
2018-04-21 14:00 METAR CWRK 211400Z AUTO 32006KT 05/M09 RMK AO1 SOG 11 1010 SLP311 T00521089 =
2018-04-21 13:00 METAR CWRK 211300Z AUTO 35003KT 02/M07 RMK AO1 SOG 11 3010 SLP311 T00151068 =
2018-04-21 12:00 METAR CWRK 211200Z AUTO 00000KT M02/M06 RMK AO1 SOG 10 3000 SLP306 T10151061 =
2018-04-21 11:00 METAR CWRK 211100Z AUTO 00000KT M08/M08 RMK AO1 SOG 11 2000 SLP303 T10761079 =
2018-04-21 10:00 METAR CWRK 211000Z AUTO 00000KT M08/M08 RMK AO1 SOG 11 0000 SLP300 T10761080 =
2018-04-21 09:00 METAR CWRK 210900Z AUTO 00000KT M07/M07 RMK AO1 SOG 11 5000 SLP301 T10691073 =
2018-04-21 08:00 METAR CWRK 210800Z AUTO 22001KT M06/M06 RMK AO1 SOG 11 0000 SLP298 T10601055 =
2018-04-21 07:00 METAR CWRK 210700Z AUTO 00000KT M05/M06 RMK AO1 SOG 11 0000 SLP299 T10451063 =
2018-04-21 06:00 METAR CWRK 210600Z AUTO 00000KT M05/M06 RMK AO1 SOG 11 3010 SLP303 T10471055 =
2018-04-21 05:00 METAR CWRK 210500Z AUTO 22001KT M03/M06 RMK AO1 SOG 11 3000 SLP298 T10341058 =
2018-04-21 04:00 METAR CWRK 210400Z AUTO 00000KT M03/M06 RMK AO1 SOG 11 1000 SLP293 T10331059 =
2018-04-21 03:00 METAR CWRK 210300Z AUTO 06001KT M03/M06 RMK AO1 SOG 11 1010 SLP293 T10291057 =
2018-04-21 02:00 METAR CWRK 210200Z AUTO 31001KT M01/M06 RMK AO1 SOG 11 1010 SLP291 T10131064 =

Support USWX by starting your Amazon purchase here.